KTPF/TPF METAR and TAF weather

Enter ICAO airport designator
Station Type Date Time Source
KTPF METAR 2020/12/05 05:55 UTC NOAA

KTPF 050555Z AUTO 20003KT 10SM SCT031 SCT120 19/17 A3005 RMK AO2


Station Type Date Time Source
KTPF Decoded METAR 2020/12/05 05:55 UTC NOAA

Tampa, Peter O Knight Airport, FL, United States (KTPF) 27-54-56N 082-26-57W
Dec 05, 2020 - 12:55 AM EST / 2020.12.05 0555 UTC
Wind: from the SSW (200 degrees) at 3 MPH (3 KT):0
Visibility: 10 mile(s):0
Sky conditions: partly cloudy
Temperature: 66 F (19 C)
Dew Point: 62 F (17 C)
Relative Humidity: 88%
Pressure (altimeter): 30.05 in. Hg (1017 hPa)
ob: KTPF 050555Z AUTO 20003KT 10SM SCT031 SCT120 19/17 A3005 RMK AO2
cycle: 6

Station Type Date Time Source
KTPF TAF UTC NOAA

Error!

Example: see airport list